Time;durP1;ratioP1;P1;durP2;ratioP2;P2;SDS_P1;SDS_P2;PMS_P1;PMS_P2;Temp;Humidity;BMP_temperature;BMP_pressure;BME280_temperature;BME280_humidity;BME280_pressure;Samples;Min_cycle;Max_cycle;Signal;HPM_P1;HPM_P2
2023/04/12 00:00:01;;;;;;;4.40;3.38;;;12.10;79.50;;;;;;5065740;28;20041;-61
2023/04/12 00:02:26;;;;;;;5.10;3.72;;;12.10;79.70;;;;;;5077339;28;20446;-62
2023/04/12 00:04:56;;;;;;;5.20;3.85;;;12.10;79.90;;;;;;5074202;28;20031;-62
2023/04/12 00:07:23;;;;;;;5.97;3.58;;;12.10;80.30;;;;;;5079884;28;20024;-62
2023/04/12 00:09:49;;;;;;;4.60;3.75;;;12.00;80.40;;;;;;5080218;28;20471;-61
2023/04/12 00:12:16;;;;;;;4.68;3.40;;;12.00;80.60;;;;;;5074949;28;20590;-62
2023/04/12 00:14:42;;;;;;;4.57;3.15;;;12.00;80.80;;;;;;5082535;28;20111;-62
2023/04/12 00:17:08;;;;;;;4.22;3.40;;;12.00;81.00;;;;;;5063988;28;20461;-61
2023/04/12 00:19:34;;;;;;;4.47;3.58;;;12.00;81.10;;;;;;5067581;28;20044;-62
2023/04/12 00:22:00;;;;;;;5.22;3.65;;;11.90;81.30;;;;;;5074169;28;20031;-61
2023/04/12 00:24:25;;;;;;;5.15;3.85;;;11.90;81.50;;;;;;5075862;28;20025;-61
2023/04/12 00:26:51;;;;;;;5.00;3.83;;;11.90;81.70;;;;;;5076723;28;20063;-62
2023/04/12 00:29:17;;;;;;;4.50;3.70;;;11.90;82.00;;;;;;5071452;28;20031;-62
2023/04/12 00:31:42;;;;;;;4.80;4.03;;;11.90;82.20;;;;;;5068504;28;20029;-61
2023/04/12 00:34:08;;;;;;;4.53;3.60;;;11.90;82.30;;;;;;5080419;28;20490;-62
2023/04/12 00:36:34;;;;;;;4.68;3.78;;;11.80;82.50;;;;;;5074001;28;20672;-62
2023/04/12 00:38:59;;;;;;;5.70;3.70;;;11.80;82.70;;;;;;5087346;28;20032;-62
2023/04/12 00:41:26;;;;;;;4.35;3.60;;;11.80;82.90;;;;;;5059813;28;20032;-62
2023/04/12 00:43:51;;;;;;;3.90;3.28;;;11.80;83.10;;;;;;5074002;28;20039;-62
2023/04/12 00:46:18;;;;;;;6.30;3.50;;;11.80;83.30;;;;;;5073865;28;20032;-62
2023/04/12 00:48:46;;;;;;;4.57;4.05;;;11.70;83.50;;;;;;5075884;28;20055;-61
2023/04/12 00:51:13;;;;;;;4.88;3.70;;;11.70;83.80;;;;;;5081421;28;20032;-62
2023/04/12 00:53:40;;;;;;;4.00;3.60;;;11.70;83.90;;;;;;5073713;28;20044;-62
2023/04/12 00:56:06;;;;;;;5.78;3.88;;;11.70;84.00;;;;;;5086239;28;20043;-61
2023/04/12 00:58:32;;;;;;;4.82;3.63;;;11.70;84.20;;;;;;5086310;28;20688;-62
2023/04/12 01:00:59;;;;;;;4.07;3.45;;;11.70;84.40;;;;;;5073919;28;20044;-61
2023/04/12 01:03:26;;;;;;;4.32;3.35;;;11.70;84.60;;;;;;5079283;28;20040;-61
2023/04/12 01:06:15;;;;;;;4.38;3.30;;;11.70;84.70;;;;;;5078015;28;20040;-62
2023/04/12 01:08:54;;;;;;;4.93;4.10;;;11.70;84.70;;;;;;5078062;28;20075;-62
2023/04/12 01:11:39;;;;;;;4.85;3.40;;;11.70;85.00;;;;;;5072834;28;20033;-62
2023/04/12 01:14:16;;;;;;;3.97;3.30;;;11.70;85.10;;;;;;5078373;28;20032;-61
2023/04/12 01:16:55;;;;;;;3.92;3.30;;;11.70;85.20;;;;;;5076406;28;20028;-62
2023/04/12 01:19:44;;;;;;;4.05;3.17;;;11.70;85.10;;;;;;5073228;28;20031;-62
2023/04/12 01:22:29;;;;;;;4.55;3.40;;;11.70;85.20;;;;;;5071968;28;20456;-62
2023/04/12 01:25:22;;;;;;;4.25;3.42;;;11.70;85.50;;;;;;5076771;28;20028;-62
2023/04/12 01:27:54;;;;;;;4.88;3.50;;;11.70;85.40;;;;;;5063389;28;20067;-62
2023/04/12 01:30:21;;;;;;;4.40;3.65;;;11.70;85.70;;;;;;5077840;28;20044;-62
2023/04/12 01:32:50;;;;;;;4.35;3.58;;;11.60;85.70;;;;;;5078679;28;20029;-62
2023/04/12 01:35:19;;;;;;;5.82;3.47;;;11.70;86.10;;;;;;5069995;28;20127;-61
2023/04/12 01:37:45;;;;;;;3.60;3.30;;;11.70;86.10;;;;;;5087933;28;20463;-62
2023/04/12 01:40:12;;;;;;;3.75;3.28;;;11.70;86.20;;;;;;5072021;28;20031;-62
2023/04/12 01:42:41;;;;;;;4.07;3.55;;;11.60;86.20;;;;;;5084234;28;20047;-61
2023/04/12 01:45:07;;;;;;;4.40;3.45;;;11.60;86.40;;;;;;5074498;28;20024;-62
2023/04/12 01:47:33;;;;;;;4.53;3.42;;;11.60;86.50;;;;;;5081211;28;20034;-62
2023/04/12 01:50:15;;;;;;;4.38;3.75;;;11.60;86.60;;;;;;5076923;28;20082;-61
2023/04/12 01:53:02;;;;;;;3.80;3.28;;;11.60;86.70;;;;;;5075851;28;20467;-62
2023/04/12 01:55:31;;;;;;;4.88;3.40;;;11.60;86.60;;;;;;5069551;28;20101;-62
2023/04/12 01:57:58;;;;;;;5.05;3.83;;;11.60;87.00;;;;;;5075828;28;20024;-62
2023/04/12 02:00:24;;;;;;;4.45;3.58;;;11.60;87.20;;;;;;5072326;28;20036;-62
2023/04/12 02:02:50;;;;;;;4.15;3.42;;;11.60;87.20;;;;;;5074984;28;20032;-61
2023/04/12 02:05:16;;;;;;;4.43;3.70;;;11.60;87.30;;;;;;5080858;28;20032;-62
2023/04/12 02:07:42;;;;;;;4.82;4.00;;;11.60;87.60;;;;;;5073617;28;20035;-62
2023/04/12 02:10:13;;;;;;;6.57;3.30;;;11.60;87.60;;;;;;5075675;28;20032;-61
2023/04/12 02:12:39;;;;;;;3.80;3.20;;;11.60;87.70;;;;;;5079115;28;20459;-62
2023/04/12 02:15:06;;;;;;;4.30;3.53;;;11.60;87.80;;;;;;5074574;28;20059;-62
2023/04/12 02:17:33;;;;;;;4.55;3.70;;;11.60;87.90;;;;;;5064519;28;20044;-63
2023/04/12 02:19:58;;;;;;;4.50;4.03;;;11.60;88.10;;;;;;5064375;28;20042;-61
2023/04/12 02:22:24;;;;;;;6.25;3.70;;;11.60;88.30;;;;;;5077188;28;20043;-62
2023/04/12 02:24:50;;;;;;;5.28;3.80;;;11.60;88.50;;;;;;5074478;28;20032;-61
2023/04/12 02:27:17;;;;;;;4.47;3.60;;;11.60;88.60;;;;;;5070800;28;20048;-62
2023/04/12 02:29:43;;;;;;;5.40;3.75;;;11.70;88.80;;;;;;5079551;28;20390;-62
2023/04/12 02:32:09;;;;;;;4.63;3.53;;;11.60;88.80;;;;;;5077439;28;20056;-61
2023/04/12 02:34:37;;;;;;;4.15;3.28;;;11.60;89.00;;;;;;5066226;28;20459;-62
2023/04/12 02:37:03;;;;;;;5.07;3.47;;;11.60;89.20;;;;;;5075099;28;20073;-62
2023/04/12 02:39:30;;;;;;;4.50;3.45;;;11.60;89.50;;;;;;5079534;28;20032;-61
2023/04/12 02:41:56;;;;;;;6.03;4.18;;;11.60;89.60;;;;;;5068157;28;20025;-62
2023/04/12 02:44:22;;;;;;;4.57;3.58;;;11.60;89.90;;;;;;5071769;28;20032;-62
2023/04/12 02:46:48;;;;;;;4.10;3.55;;;11.60;90.00;;;;;;5085262;28;20529;-62
2023/04/12 02:49:13;;;;;;;5.07;3.50;;;11.60;90.10;;;;;;5067904;28;20020;-62
2023/04/12 02:51:39;;;;;;;4.88;3.65;;;11.60;90.20;;;;;;5073286;28;20035;-62
2023/04/12 02:54:05;;;;;;;5.72;3.72;;;11.60;90.30;;;;;;5071583;28;20040;-62
2023/04/12 02:56:33;;;;;;;5.30;3.90;;;11.60;90.40;;;;;;5054055;28;20028;-61
2023/04/12 02:58:59;;;;;;;4.47;3.72;;;11.50;90.50;;;;;;5080877;28;20073;-62
2023/04/12 03:01:25;;;;;;;3.80;3.25;;;11.50;90.70;;;;;;5071971;28;20025;-62
2023/04/12 03:03:51;;;;;;;4.35;3.65;;;11.50;90.80;;;;;;5078901;28;20040;-62
2023/04/12 03:06:16;;;;;;;5.40;3.97;;;11.60;90.90;;;;;;5077549;28;20029;-62
2023/04/12 03:08:42;;;;;;;4.70;3.80;;;11.60;91.00;;;;;;5074599;28;20127;-61
2023/04/12 03:11:07;;;;;;;3.60;3.17;;;11.60;91.20;;;;;;5071434;28;20016;-62
2023/04/12 03:13:33;;;;;;;4.75;3.70;;;11.60;91.30;;;;;;5078514;28;20425;-61
2023/04/12 03:15:59;;;;;;;3.97;3.38;;;11.50;91.40;;;;;;5074569;28;20429;-61
2023/04/12 03:18:25;;;;;;;4.78;4.05;;;11.50;91.40;;;;;;5075105;28;20041;-62
2023/04/12 03:20:54;;;;;;;5.07;3.45;;;11.60;91.60;;;;;;5079853;28;20111;-62
2023/04/12 03:23:20;;;;;;;7.43;4.10;;;11.50;91.70;;;;;;5076518;28;20525;-62
2023/04/12 03:25:45;;;;;;;4.53;3.78;;;11.60;91.80;;;;;;5073782;28;20040;-62
2023/04/12 03:28:11;;;;;;;4.82;3.88;;;11.50;91.80;;;;;;5074317;28;20100;-61
2023/04/12 03:30:36;;;;;;;5.43;4.05;;;11.50;91.90;;;;;;5070578;28;20043;-62
2023/04/12 03:33:02;;;;;;;5.00;3.70;;;11.50;92.00;;;;;;5078773;28;20028;-62
2023/04/12 03:35:28;;;;;;;4.47;3.58;;;11.50;92.10;;;;;;5072659;28;20032;-62
2023/04/12 03:37:54;;;;;;;8.32;4.22;;;11.50;92.20;;;;;;5069931;28;20048;-62
2023/04/12 03:40:20;;;;;;;4.95;3.60;;;11.50;92.40;;;;;;5076366;28;20029;-62
2023/04/12 03:42:46;;;;;;;4.50;3.88;;;11.50;92.50;;;;;;5077463;28;20110;-61
2023/04/12 03:45:11;;;;;;;4.38;3.97;;;11.50;92.60;;;;;;5079788;28;20036;-62
2023/04/12 03:47:37;;;;;;;5.32;4.22;;;11.50;92.60;;;;;;5091078;28;20050;-62
2023/04/12 03:50:09;;;;;;;5.97;3.97;;;11.50;92.70;;;;;;5078605;28;20031;-61
2023/04/12 03:52:35;;;;;;;4.32;3.78;;;11.40;92.80;;;;;;5077908;28;20037;-61
2023/04/12 03:55:00;;;;;;;5.38;4.05;;;11.50;92.90;;;;;;5074437;28;20043;-61
2023/04/12 03:57:26;;;;;;;5.20;4.05;;;11.50;93.10;;;;;;5073348;28;20056;-61
2023/04/12 03:59:52;;;;;;;5.35;4.38;;;11.50;93.10;;;;;;5072644;28;20741;-61
2023/04/12 04:02:17;;;;;;;5.55;4.50;;;11.50;93.20;;;;;;5074446;28;20036;-62
2023/04/12 04:04:43;;;;;;;4.65;4.15;;;11.50;93.30;;;;;;5075411;28;20060;-62
2023/04/12 04:07:10;;;;;;;4.53;3.92;;;11.50;93.30;;;;;;5082649;28;20025;-62
2023/04/12 04:09:35;;;;;;;4.53;3.63;;;11.50;93.40;;;;;;5075546;28;20104;-62
2023/04/12 04:12:01;;;;;;;5.68;4.05;;;11.50;93.50;;;;;;5073419;28;20112;-62
2023/04/12 04:14:27;;;;;;;5.45;4.20;;;11.50;93.50;;;;;;5084125;28;20043;-62
2023/04/12 04:16:54;;;;;;;4.78;4.07;;;11.50;93.60;;;;;;5080114;28;20039;-61
2023/04/12 04:19:20;;;;;;;8.23;4.00;;;11.50;93.70;;;;;;5075128;28;20035;-61
2023/04/12 04:21:46;;;;;;;5.40;3.78;;;11.50;93.70;;;;;;5074422;28;20024;-61
2023/04/12 04:24:13;;;;;;;5.85;4.05;;;11.50;93.80;;;;;;5075781;28;20036;-62
2023/04/12 04:26:38;;;;;;;5.32;4.35;;;11.50;93.80;;;;;;5077763;28;20055;-62
2023/04/12 04:29:04;;;;;;;4.47;3.80;;;11.50;93.80;;;;;;5074287;28;20028;-61
2023/04/12 04:31:35;;;;;;;4.47;3.90;;;11.50;93.90;;;;;;5072756;28;20029;-61
2023/04/12 04:34:02;;;;;;;4.65;3.75;;;11.50;94.00;;;;;;5075012;28;20025;-62
2023/04/12 04:36:28;;;;;;;5.38;3.83;;;11.50;94.10;;;;;;5075292;28;20385;-62
2023/04/12 04:38:56;;;;;;;5.00;4.28;;;11.50;94.10;;;;;;5084529;28;20051;-62
2023/04/12 04:41:23;;;;;;;5.43;4.07;;;11.50;94.10;;;;;;5080290;28;20027;-62
2023/04/12 04:43:49;;;;;;;4.50;3.80;;;11.50;94.20;;;;;;5072452;28;20029;-62
2023/04/12 04:46:16;;;;;;;5.88;4.25;;;11.50;94.10;;;;;;5079508;28;20028;-63
2023/04/12 04:48:41;;;;;;;5.25;3.92;;;11.50;94.20;;;;;;5067693;28;20466;-62
2023/04/12 04:51:07;;;;;;;4.78;4.10;;;11.50;94.30;;;;;;5082093;28;20223;-62
2023/04/12 04:53:33;;;;;;;4.55;4.00;;;11.50;94.20;;;;;;5072601;28;20453;-62
2023/04/12 04:55:59;;;;;;;4.47;3.90;;;11.50;94.20;;;;;;5065154;28;20638;-62
2023/04/12 04:58:25;;;;;;;5.72;3.90;;;11.60;94.20;;;;;;5074670;28;20033;-62
2023/04/12 05:00:54;;;;;;;4.18;3.67;;;11.60;94.20;;;;;;5078295;28;20039;-62
2023/04/12 05:03:20;;;;;;;5.22;4.25;;;11.60;94.30;;;;;;5070917;28;20083;-63
2023/04/12 05:05:50;;;;;;;5.70;4.00;;;11.60;94.30;;;;;;5073695;28;20060;-63
2023/04/12 05:08:16;;;;;;;4.35;3.90;;;11.60;94.30;;;;;;5075294;28;20031;-63
2023/04/12 05:10:43;;;;;;;4.40;3.83;;;11.60;94.30;;;;;;5073615;28;20055;-62
2023/04/12 05:13:09;;;;;;;5.88;4.30;;;11.60;94.40;;;;;;5081762;28;20451;-64
2023/04/12 05:15:34;;;;;;;4.72;3.50;;;11.60;94.40;;;;;;5075895;28;20039;-63
2023/04/12 05:18:00;;;;;;;4.95;4.07;;;11.60;94.30;;;;;;5076213;28;20107;-61
2023/04/12 05:20:26;;;;;;;4.50;3.72;;;11.60;94.40;;;;;;5071994;28;20463;-64
2023/04/12 05:22:52;;;;;;;6.43;4.50;;;11.60;94.50;;;;;;5075089;28;20040;-63
2023/04/12 05:25:19;;;;;;;5.72;3.63;;;11.60;94.40;;;;;;5076545;28;20028;-62
2023/04/12 05:27:46;;;;;;;5.45;3.97;;;11.70;94.50;;;;;;5073538;28;20025;-63
2023/04/12 05:30:12;;;;;;;5.95;3.95;;;11.60;94.40;;;;;;5071969;28;20051;-62
2023/04/12 05:32:37;;;;;;;4.20;3.65;;;11.60;94.40;;;;;;5077732;28;20475;-62
2023/04/12 05:35:04;;;;;;;4.68;3.70;;;11.60;94.30;;;;;;5069663;28;20043;-63
2023/04/12 05:37:30;;;;;;;4.38;3.60;;;11.60;94.30;;;;;;5072244;28;20436;-63
2023/04/12 05:39:56;;;;;;;5.18;3.72;;;11.70;94.70;;;;;;5078204;28;20082;-62
2023/04/12 05:42:21;;;;;;;5.47;4.30;;;11.70;94.50;;;;;;5071831;28;20024;-62
2023/04/12 05:44:48;;;;;;;5.60;3.63;;;11.70;94.40;;;;;;5071897;28;20422;-63
2023/04/12 05:47:14;;;;;;;5.60;3.85;;;11.70;94.30;;;;;;5057262;28;20675;-61
2023/04/12 05:49:39;;;;;;;5.05;3.50;;;11.70;94.40;;;;;;5052679;28;20095;-62
2023/04/12 05:52:05;;;;;;;5.72;3.85;;;11.70;94.40;;;;;;5047517;28;20055;-63
2023/04/12 05:54:31;;;;;;;4.70;3.50;;;11.70;94.50;;;;;;5053169;28;20037;-62
2023/04/12 05:56:57;;;;;;;4.78;3.80;;;11.70;94.60;;;;;;5063495;28;20625;-61
2023/04/12 05:59:22;;;;;;;4.20;3.70;;;11.70;94.60;;;;;;5064108;28;20040;-62
2023/04/12 06:01:48;;;;;;;4.60;3.22;;;11.70;94.50;;;;;;5069432;28;20029;-62
2023/04/12 06:04:14;;;;;;;5.22;4.00;;;11.70;94.60;;;;;;5075519;28;20071;-63
2023/04/12 06:06:40;;;;;;;5.30;3.83;;;11.70;94.60;;;;;;5055813;28;20057;-61
2023/04/12 06:09:05;;;;;;;5.07;3.88;;;11.70;94.80;;;;;;5057305;28;20028;-62
2023/04/12 06:11:34;;;;;;;5.57;4.28;;;11.70;94.90;;;;;;5057126;28;20032;-63
2023/04/12 06:14:00;;;;;;;4.38;3.63;;;11.70;94.90;;;;;;5069259;28;20047;-63
2023/04/12 06:16:26;;;;;;;4.07;3.63;;;11.70;94.90;;;;;;5060797;28;20410;-63
2023/04/12 06:18:52;;;;;;;4.68;3.70;;;11.70;95.00;;;;;;5060860;28;20395;-62
2023/04/12 06:21:18;;;;;;;5.03;3.67;;;11.70;95.10;;;;;;5040524;28;20058;-62
2023/04/12 06:23:44;;;;;;;4.88;3.55;;;11.70;95.00;;;;;;5062605;28;20068;-62
2023/04/12 06:26:10;;;;;;;4.78;4.00;;;11.70;95.00;;;;;;5061825;28;20140;-61
2023/04/12 06:28:36;;;;;;;4.07;3.63;;;11.70;95.00;;;;;;5045912;28;20033;-62
2023/04/12 06:31:02;;;;;;;3.97;3.30;;;11.70;95.00;;;;;;5064440;28;20539;-63
2023/04/12 06:33:28;;;;;;;5.18;3.72;;;11.70;95.00;;;;;;5056210;28;20130;-60
2023/04/12 06:35:54;;;;;;;4.72;3.78;;;11.70;95.10;;;;;;5050830;28;20117;-62
2023/04/12 06:38:20;;;;;;;3.80;3.40;;;11.70;95.00;;;;;;5056768;28;20075;-62
2023/04/12 06:40:46;;;;;;;4.88;3.80;;;11.80;95.10;;;;;;5056843;28;20147;-62
2023/04/12 06:43:12;;;;;;;3.92;3.53;;;11.80;95.10;;;;;;5062649;28;20094;-63
2023/04/12 06:45:37;;;;;;;6.85;3.97;;;11.80;95.00;;;;;;5059373;28;20024;-63
2023/04/12 06:48:03;;;;;;;4.30;3.78;;;11.80;95.00;;;;;;5058080;28;20070;-63
2023/04/12 06:50:29;;;;;;;4.47;3.60;;;11.80;95.10;;;;;;5034138;28;20033;-64
2023/04/12 06:52:54;;;;;;;4.95;3.75;;;11.80;95.10;;;;;;5051916;28;20357;-62
2023/04/12 06:55:20;;;;;;;4.50;3.75;;;11.80;95.20;;;;;;5047199;28;20044;-63
2023/04/12 06:57:46;;;;;;;4.15;3.72;;;11.80;95.30;;;;;;5057184;28;20032;-63
2023/04/12 07:00:12;;;;;;;5.13;4.20;;;11.80;95.30;;;;;;5055340;28;20024;-63
2023/04/12 07:02:38;;;;;;;4.13;3.58;;;11.80;95.40;;;;;;5025785;28;20062;-64
2023/04/12 07:05:07;;;;;;;4.60;3.63;;;11.80;95.40;;;;;;5059950;28;20024;-64
2023/04/12 07:07:32;;;;;;;4.38;3.55;;;11.80;95.30;;;;;;5063688;28;20375;-64
2023/04/12 07:09:59;;;;;;;6.20;4.47;;;11.80;95.30;;;;;;5059870;28;20029;-63
2023/04/12 07:12:24;;;;;;;4.18;3.28;;;11.80;95.30;;;;;;5058932;28;20043;-64
2023/04/12 07:14:50;;;;;;;4.40;3.60;;;11.80;95.30;;;;;;5060464;28;20032;-65
2023/04/12 07:17:16;;;;;;;5.47;3.72;;;11.80;95.40;;;;;;5056087;28;20113;-66
2023/04/12 07:19:44;;;;;;;5.80;3.90;;;11.90;95.40;;;;;;5059300;28;20127;-63
2023/04/12 07:22:12;;;;;;;5.40;3.75;;;11.80;95.40;;;;;;5043511;28;20568;-62
2023/04/12 07:24:38;;;;;;;5.00;3.72;;;11.90;95.50;;;;;;5041107;28;20043;-64
2023/04/12 07:27:04;;;;;;;3.45;3.15;;;11.90;95.40;;;;;;5049797;28;20049;-62
2023/04/12 07:29:30;;;;;;;4.32;3.67;;;11.80;95.30;;;;;;5052462;28;20082;-62
2023/04/12 07:31:57;;;;;;;4.20;3.53;;;11.90;95.30;;;;;;5037090;28;21958;-67
2023/04/12 07:34:22;;;;;;;4.35;3.78;;;11.80;95.40;;;;;;5043669;28;20905;-63
2023/04/12 07:36:48;;;;;;;4.88;3.53;;;11.80;95.50;;;;;;5057921;28;20031;-64
2023/04/12 07:39:14;;;;;;;5.68;3.70;;;11.90;95.60;;;;;;5052543;28;20048;-66
2023/04/12 07:41:42;;;;;;;5.25;3.88;;;11.90;95.60;;;;;;5055532;28;20554;-65
2023/04/12 07:44:07;;;;;;;5.05;4.10;;;11.90;95.70;;;;;;5052906;28;20044;-65
2023/04/12 07:46:33;;;;;;;4.30;3.65;;;11.90;95.70;;;;;;5043457;28;20024;-64
2023/04/12 07:48:59;;;;;;;4.88;3.72;;;11.90;95.60;;;;;;5051194;28;20446;-65
2023/04/12 07:51:25;;;;;;;5.15;4.13;;;11.90;95.60;;;;;;5044387;28;20032;-63
2023/04/12 07:53:51;;;;;;;4.85;3.65;;;11.90;95.50;;;;;;5048709;28;20060;-63
2023/04/12 07:56:17;;;;;;;5.35;3.72;;;11.90;95.50;;;;;;5051417;28;20159;-64
2023/04/12 07:58:42;;;;;;;5.80;4.60;;;12.00;95.60;;;;;;5054865;28;20059;-62
2023/04/12 08:01:12;;;;;;;4.35;3.83;;;12.00;95.50;;;;;;5056956;28;20051;-64
2023/04/12 08:03:37;;;;;;;5.63;3.85;;;11.90;95.50;;;;;;5059245;28;20467;-64
2023/04/12 08:06:04;;;;;;;5.07;3.80;;;11.90;95.50;;;;;;5063983;28;20057;-64
2023/04/12 08:08:30;;;;;;;4.28;3.70;;;11.90;95.50;;;;;;5054978;28;20475;-63
2023/04/12 08:10:55;;;;;;;4.70;3.80;;;11.90;95.70;;;;;;5042250;28;20035;-65
2023/04/12 08:13:21;;;;;;;5.88;4.47;;;11.90;95.80;;;;;;5049910;28;20079;-65
2023/04/12 08:15:47;;;;;;;6.50;3.88;;;12.00;95.90;;;;;;5038808;28;20468;-63
2023/04/12 08:18:13;;;;;;;4.60;3.97;;;12.00;95.80;;;;;;5045733;28;20081;-63
2023/04/12 08:20:39;;;;;;;5.13;3.92;;;12.00;95.70;;;;;;5038438;28;20459;-64
2023/04/12 08:23:06;;;;;;;5.70;3.90;;;12.00;95.90;;;;;;5050084;28;20043;-63
2023/04/12 08:25:32;;;;;;;4.65;3.80;;;12.00;96.10;;;;;;5040654;28;20568;-63
2023/04/12 08:27:58;;;;;;;5.22;3.80;;;12.00;96.20;;;;;;5045895;28;20029;-62
2023/04/12 08:30:25;;;;;;;4.82;3.55;;;12.00;96.30;;;;;;5046635;28;20043;-63
2023/04/12 08:32:52;;;;;;;5.32;4.13;;;12.00;96.20;;;;;;5035232;28;20045;-64
2023/04/12 08:35:18;;;;;;;4.40;3.38;;;12.10;96.20;;;;;;5040925;28;20502;-63
2023/04/12 08:37:44;;;;;;;4.32;3.47;;;12.10;96.10;;;;;;5052206;28;20119;-65
2023/04/12 08:40:10;;;;;;;4.90;3.47;;;12.10;96.10;;;;;;5037179;28;20463;-63
2023/04/12 08:42:36;;;;;;;5.05;3.53;;;12.10;96.00;;;;;;5044852;28;20032;-65
2023/04/12 08:45:07;;;;;;;6.30;3.50;;;12.10;96.00;;;;;;5041337;28;20037;-64
2023/04/12 08:47:38;;;;;;;4.03;3.47;;;12.10;95.90;;;;;;5043935;28;20036;-63
2023/04/12 08:50:08;;;;;;;4.40;3.90;;;12.20;95.90;;;;;;5041815;28;20262;-64
2023/04/12 08:52:34;;;;;;;4.03;3.47;;;12.20;95.90;;;;;;5053345;28;20044;-63
2023/04/12 08:55:07;;;;;;;5.32;3.78;;;12.20;95.90;;;;;;5045984;28;20090;-63
2023/04/12 08:57:35;;;;;;;4.57;3.95;;;12.20;96.00;;;;;;5052073;28;20029;-63
2023/04/12 09:00:02;;;;;;;4.95;3.92;;;12.20;96.10;;;;;;5038465;28;20071;-65
2023/04/12 09:02:28;;;;;;;5.63;4.22;;;12.20;96.00;;;;;;5047906;28;20041;-64
2023/04/12 09:04:54;;;;;;;5.10;3.65;;;12.30;95.90;;;;;;5054451;28;20035;-64
2023/04/12 09:07:22;;;;;;;5.10;3.80;;;12.20;95.80;;;;;;5049717;28;20059;-63
2023/04/12 09:09:48;;;;;;;6.55;4.15;;;12.30;95.80;;;;;;5051398;28;20217;-63
2023/04/12 09:12:15;;;;;;;5.90;3.92;;;12.30;95.80;;;;;;5048497;28;20024;-63
2023/04/12 09:14:44;;;;;;;4.13;3.65;;;12.30;95.80;;;;;;5058687;28;20120;-63
2023/04/12 09:17:24;;;;;;;5.22;3.83;;;12.30;95.70;;;;;;5043556;28;20033;-63
2023/04/12 09:19:50;;;;;;;4.40;3.65;;;12.30;95.60;;;;;;5053763;28;20037;-65
2023/04/12 09:22:16;;;;;;;4.10;3.53;;;12.30;95.90;;;;;;5047754;28;20616;-62
2023/04/12 09:24:51;;;;;;;4.10;3.38;;;12.30;96.00;;;;;;5047395;28;20479;-62
2023/04/12 09:27:20;;;;;;;4.20;3.47;;;12.40;95.80;;;;;;5044539;28;20067;-62
2023/04/12 09:29:50;;;;;;;4.80;3.38;;;12.40;95.90;;;;;;5051178;28;20036;-63
2023/04/12 09:32:26;;;;;;;3.95;3.10;;;12.40;96.00;;;;;;5044592;28;20094;-62
2023/04/12 09:35:01;;;;;;;3.50;3.20;;;12.40;95.90;;;;;;5049854;28;20040;-63
2023/04/12 09:37:27;;;;;;;3.75;2.92;;;12.40;96.00;;;;;;5045629;28;20122;-63
2023/04/12 09:40:06;;;;;;;3.70;3.00;;;12.40;96.00;;;;;;5053828;28;20422;-62
2023/04/12 09:42:34;;;;;;;5.22;3.13;;;12.50;95.70;;;;;;5045480;28;20031;-64
2023/04/12 09:45:18;;;;;;;4.97;3.33;;;12.50;95.70;;;;;;5051198;28;20032;-62
2023/04/12 09:47:44;;;;;;;4.25;3.38;;;12.50;95.40;;;;;;5050571;28;20036;-63
2023/04/12 09:50:22;;;;;;;4.55;3.40;;;12.50;95.20;;;;;;5047781;28;20036;-64
2023/04/12 09:52:48;;;;;;;3.50;3.20;;;12.50;95.10;;;;;;5048345;28;20039;-63
2023/04/12 09:55:14;;;;;;;4.75;3.50;;;12.40;95.00;;;;;;5054318;28;20040;-64
2023/04/12 09:57:42;;;;;;;5.57;3.75;;;12.40;95.00;;;;;;5046559;28;20032;-65
2023/04/12 10:00:15;;;;;;;4.68;3.58;;;12.30;95.10;;;;;;5047353;28;20036;-65
2023/04/12 10:02:43;;;;;;;4.47;3.70;;;12.30;95.20;;;;;;5043418;28;20043;-65
2023/04/12 10:05:13;;;;;;;3.50;3.20;;;12.20;95.40;;;;;;5049314;28;20032;-65
2023/04/12 10:07:41;;;;;;;4.10;3.47;;;12.10;95.60;;;;;;5046692;28;20043;-65
2023/04/12 10:10:07;;;;;;;4.28;3.45;;;12.10;95.80;;;;;;5049444;28;20659;-65
2023/04/12 10:12:36;;;;;;;5.68;3.55;;;12.00;96.00;;;;;;5043838;28;20043;-63
2023/04/12 10:15:19;;;;;;;4.43;3.50;;;12.00;96.20;;;;;;5046394;28;20059;-66
2023/04/12 10:17:47;;;;;;;6.45;3.42;;;12.00;96.30;;;;;;5044861;28;20139;-66
2023/04/12 10:20:14;;;;;;;4.28;3.60;;;11.90;96.50;;;;;;5056817;28;20115;-65
2023/04/12 10:22:45;;;;;;;5.32;3.60;;;11.90;96.70;;;;;;5059313;28;20725;-64
2023/04/12 10:25:12;;;;;;;4.32;3.72;;;11.90;96.80;;;;;;5048660;28;20032;-64
2023/04/12 10:27:42;;;;;;;4.20;3.60;;;11.90;97.10;;;;;;5049899;28;20029;-64
2023/04/12 10:30:17;;;;;;;4.47;3.45;;;11.90;97.20;;;;;;5057955;28;20036;-64
2023/04/12 10:32:43;;;;;;;4.95;3.35;;;11.90;97.20;;;;;;5056530;28;20974;-64
2023/04/12 10:35:10;;;;;;;4.00;3.60;;;11.90;97.60;;;;;;5056555;28;21008;-65
2023/04/12 10:38:01;;;;;;;3.88;3.47;;;12.00;97.70;;;;;;5065794;28;20029;-66
2023/04/12 10:40:32;;;;;;;5.13;3.42;;;12.00;97.30;;;;;;5042527;28;20032;-65
2023/04/12 10:43:25;;;;;;;3.72;3.20;;;12.00;97.50;;;;;;5056416;28;20131;-64
2023/04/12 10:45:51;;;;;;;4.05;3.40;;;12.00;97.10;;;;;;5043922;28;20056;-66
2023/04/12 10:48:32;;;;;;;4.18;3.55;;;12.00;97.40;;;;;;5049090;28;20807;-65
2023/04/12 10:51:10;;;;;;;;;;;12.00;97.20;;;;;;5046262;28;20040;-64
2023/04/12 10:53:36;;;;;;;4.05;3.03;;;12.00;97.10;;;;;;5050488;28;19916;-65
2023/04/12 10:56:30;;;;;;;3.55;3.25;;;12.00;97.50;;;;;;5050269;28;20082;-63
2023/04/12 10:58:58;;;;;;;3.85;3.13;;;12.00;97.30;;;;;;5039138;28;20028;-66
2023/04/12 11:01:24;;;;;;;4.25;3.40;;;12.00;97.60;;;;;;5039701;28;20036;-61
2023/04/12 11:04:14;;;;;;;3.47;3.17;;;12.00;97.70;;;;;;5041009;28;20398;-62
2023/04/12 11:06:52;;;;;;;4.88;3.30;;;12.00;97.90;;;;;;5025681;28;20024;-63
2023/04/12 11:09:32;;;;;;;6.30;3.40;;;12.00;97.70;;;;;;5033173;28;20085;-62
2023/04/12 11:12:10;;;;;;;5.03;3.25;;;12.00;98.10;;;;;;5039609;28;20072;-64
2023/04/12 11:14:43;;;;;;;3.75;3.13;;;12.00;97.80;;;;;;5048434;28;20036;-66
2023/04/12 11:17:08;;;;;;;4.28;3.50;;;12.00;98.20;;;;;;5050000;28;20028;-63
2023/04/12 11:19:38;;;;;;;3.42;3.00;;;12.00;98.20;;;;;;5042163;28;20028;-64
2023/04/12 11:22:08;;;;;;;4.47;3.00;;;12.00;98.30;;;;;;5056274;28;20029;-63
2023/04/12 11:24:38;;;;;;;3.38;3.03;;;12.00;98.50;;;;;;5043788;28;20037;-64
2023/04/12 11:27:04;;;;;;;4.00;3.30;;;12.00;98.50;;;;;;5049942;28;20656;-63
2023/04/12 11:29:33;;;;;;;4.30;2.90;;;12.00;98.90;;;;;;5048095;28;20075;-63
2023/04/12 11:32:02;;;;;;;3.55;3.15;;;12.00;98.90;;;;;;5042817;28;20056;-63
2023/04/12 11:34:35;;;;;;;3.33;3.00;;;12.10;98.80;;;;;;5050954;28;20037;-62
2023/04/12 11:37:05;;;;;;;4.00;3.10;;;12.10;99.00;;;;;;5043387;28;20040;-63
2023/04/12 11:39:31;;;;;;;3.00;2.72;;;12.10;98.90;;;;;;5057498;28;20514;-63
2023/04/12 11:41:57;;;;;;;4.43;3.20;;;12.10;98.90;;;;;;5045444;28;20042;-61
2023/04/12 11:44:23;;;;;;;3.28;2.97;;;12.10;98.90;;;;;;5052986;28;20041;-63
2023/04/12 11:46:49;;;;;;;3.20;2.80;;;12.10;99.00;;;;;;5045781;28;20033;-61
2023/04/12 11:49:16;;;;;;;3.72;2.85;;;12.20;99.00;;;;;;5036496;28;20075;-63
2023/04/12 11:51:42;;;;;;;3.20;2.90;;;12.20;99.00;;;;;;5041864;28;20025;-62
2023/04/12 11:54:10;;;;;;;3.70;3.15;;;12.20;99.00;;;;;;5048162;28;20121;-62
2023/04/12 11:56:36;;;;;;;3.63;3.10;;;12.20;98.80;;;;;;5041977;28;20033;-62
2023/04/12 11:59:02;;;;;;;3.38;3.00;;;12.20;98.90;;;;;;5044100;28;20116;-62
2023/04/12 12:01:28;;;;;;;3.22;2.90;;;12.30;98.80;;;;;;5039663;28;20044;-62
2023/04/12 12:03:54;;;;;;;3.38;3.03;;;12.30;99.10;;;;;;5052138;28;20475;-62
2023/04/12 12:06:22;;;;;;;3.25;2.80;;;12.30;99.60;;;;;;5050311;28;20057;-62
2023/04/12 12:08:51;;;;;;;3.33;2.95;;;12.40;99.50;;;;;;5064701;28;20038;-62
2023/04/12 12:11:22;;;;;;;4.32;2.97;;;12.40;99.40;;;;;;5053008;28;20025;-63
2023/04/12 12:13:51;;;;;;;3.00;2.70;;;12.40;99.00;;;;;;5056182;28;20495;-62
2023/04/12 12:16:24;;;;;;;3.30;2.72;;;12.50;98.80;;;;;;5059074;28;20021;-62
2023/04/12 12:18:49;;;;;;;3.53;3.05;;;12.50;98.50;;;;;;5052985;28;20115;-62
2023/04/12 12:21:15;;;;;;;4.65;3.40;;;12.40;98.40;;;;;;5044807;28;20031;-63
2023/04/12 12:23:45;;;;;;;3.25;2.95;;;12.40;98.30;;;;;;5044550;28;20044;-62
2023/04/12 12:26:22;;;;;;;3.20;2.90;;;12.40;98.50;;;;;;5040156;28;20762;-62
2023/04/12 12:28:50;;;;;;;3.33;3.03;;;12.40;98.60;;;;;;5055313;28;20067;-63
2023/04/12 12:31:20;;;;;;;3.38;2.83;;;12.40;99.00;;;;;;5053298;28;20123;-63
2023/04/12 12:33:46;;;;;;;3.33;2.83;;;12.40;99.20;;;;;;5052911;28;20040;-63
2023/04/12 12:36:12;;;;;;;3.67;2.80;;;12.40;99.20;;;;;;5048301;28;21607;-62
2023/04/12 12:38:41;;;;;;;2.88;2.67;;;12.40;99.20;;;;;;5054699;28;20067;-63
2023/04/12 12:41:36;;;;;;;2.70;2.50;;;12.50;99.60;;;;;;5044199;28;20029;-62
2023/04/12 12:44:02;;;;;;;3.17;2.88;;;12.50;98.80;;;;;;5037251;28;20056;-63
2023/04/12 12:46:28;;;;;;;3.25;2.90;;;12.60;99.40;;;;;;5052877;28;20032;-63
2023/04/12 12:48:54;;;;;;;2.92;2.72;;;12.60;99.20;;;;;;5051751;28;20024;-62
2023/04/12 12:51:20;;;;;;;3.00;2.70;;;12.60;99.10;;;;;;5047941;28;20089;-64